Time;durP1;ratioP1;P1;durP2;ratioP2;P2;SDS_P1;SDS_P2;PMS_P1;PMS_P2;Temp;Humidity;BMP_temperature;BMP_pressure;BME280_temperature;BME280_humidity;BME280_pressure;Samples;Min_cycle;Max_cycle;Signal;HPM_P1;HPM_P2
2021/08/24 00:09:50;;;;;;;12.55;8.88;;;14.90;99.90;;;;;;6683676;88;21079;-77
2021/08/24 00:19:51;;;;;;;12.45;9.52;;;14.80;99.90;;;;;;6676119;88;20258;-78
2021/08/24 00:29:51;;;;;;;16.05;12.10;;;14.70;99.90;;;;;;6683494;88;20206;-77
2021/08/24 00:39:52;;;;;;;17.65;11.45;;;14.50;99.90;;;;;;6680215;88;20189;-77
2021/08/24 00:49:58;;;;;;;14.52;11.12;;;14.50;99.90;;;;;;6676288;89;20203;-77
2021/08/24 00:59:59;;;;;;;14.95;11.07;;;14.50;99.90;;;;;;6676085;89;20222;-77
2021/08/24 01:10:22;;;;;;;16.52;11.90;;;14.50;99.90;;;;;;6676196;88;20319;-76
2021/08/24 01:20:42;;;;;;;17.27;11.60;;;14.30;99.90;;;;;;6673256;88;20359;-76
2021/08/24 01:31:20;;;;;;;13.02;10.35;;;14.20;99.90;;;;;;6671613;88;20187;-75
2021/08/24 01:41:47;;;;;;;16.50;9.13;;;14.20;99.90;;;;;;6685414;77;20776;-76
2021/08/24 01:51:52;;;;;;;12.75;8.88;;;14.10;99.90;;;;;;6678357;89;20243;-76
2021/08/24 02:02:02;;;;;;;13.93;8.60;;;14.10;99.90;;;;;;6674798;89;20354;-75
2021/08/24 02:12:05;;;;;;;10.43;7.57;;;14.30;99.90;;;;;;6678467;89;20200;-75
2021/08/24 02:22:12;;;;;;;13.57;8.05;;;14.20;99.90;;;;;;6675979;88;20286;-76
2021/08/24 02:32:28;;;;;;;11.75;8.13;;;14.20;99.90;;;;;;6678385;89;20180;-74
2021/08/24 02:42:44;;;;;;;11.02;8.82;;;13.80;99.90;;;;;;6685161;88;20180;-74
2021/08/24 02:52:45;;;;;;;11.60;8.82;;;13.70;99.90;;;;;;6682644;88;20214;-75
2021/08/24 03:02:46;;;;;;;10.80;9.00;;;13.70;99.90;;;;;;6678604;88;20199;-76
2021/08/24 03:13:10;;;;;;;11.68;8.23;;;13.60;99.90;;;;;;6681568;88;20241;-76
2021/08/24 03:23:14;;;;;;;12.40;7.82;;;13.70;99.90;;;;;;6678963;89;20200;-76
2021/08/24 03:33:16;;;;;;;11.80;8.10;;;13.60;99.90;;;;;;6681476;88;20359;-76
2021/08/24 03:43:17;;;;;;;11.90;7.65;;;13.50;99.90;;;;;;6680948;88;20226;-76
2021/08/24 03:53:17;;;;;;;11.20;7.50;;;13.30;99.90;;;;;;6681350;88;20269;-75
2021/08/24 04:03:18;;;;;;;11.10;7.18;;;13.40;99.90;;;;;;6683051;88;20983;-76
2021/08/24 04:13:18;;;;;;;10.00;7.28;;;13.30;99.90;;;;;;6684425;88;20322;-75
2021/08/24 04:23:23;;;;;;;11.65;7.40;;;13.30;99.90;;;;;;6682932;88;20311;-73
2021/08/24 04:33:24;;;;;;;11.10;7.35;;;13.30;99.90;;;;;;6663589;89;20172;-74
2021/08/24 04:43:25;;;;;;;8.80;6.12;;;13.30;99.90;;;;;;6662118;88;20223;-75
2021/08/24 04:53:29;;;;;;;7.68;5.43;;;13.30;99.90;;;;;;6662066;89;20220;-74
2021/08/24 05:03:31;;;;;;;8.73;6.25;;;13.40;99.90;;;;;;6662380;89;20263;-75
2021/08/24 05:13:31;;;;;;;9.63;6.60;;;13.20;99.90;;;;;;6661895;89;20190;-73
2021/08/24 05:23:32;;;;;;;10.18;7.45;;;13.00;99.90;;;;;;6662410;89;20761;-76
2021/08/24 05:33:33;;;;;;;8.82;6.60;;;13.10;99.90;;;;;;6662699;89;20627;-74
2021/08/24 05:43:33;;;;;;;11.75;6.90;;;13.10;99.90;;;;;;6675536;89;20208;-74
2021/08/24 05:53:34;;;;;;;8.45;6.30;;;13.20;99.90;;;;;;6684342;88;20243;-78
2021/08/24 06:03:37;;;;;;;8.35;5.50;;;13.70;99.90;;;;;;6671967;89;20248;-74
2021/08/24 06:13:37;;;;;;;9.23;4.95;;;14.10;99.90;;;;;;6668335;88;20661;-76
2021/08/24 06:23:39;;;;;;;5.53;3.83;;;14.40;99.90;;;;;;6681622;88;20315;-76
2021/08/24 06:33:39;;;;;;;5.15;3.70;;;14.60;99.90;;;;;;6670458;88;20324;-75
2021/08/24 06:43:41;;;;;;;4.40;2.80;;;15.00;99.90;;;;;;6675907;88;20206;-75
2021/08/24 06:53:41;;;;;;;3.08;2.03;;;15.70;99.90;;;;;;6676342;88;20204;-76
2021/08/24 07:03:42;;;;;;;6.22;2.20;;;16.30;99.90;;;;;;6689142;88;20177;-74
2021/08/24 07:13:42;;;;;;;4.85;2.05;;;16.70;99.90;;;;;;6680520;88;20259;-76
2021/08/24 07:23:46;;;;;;;4.12;1.98;;;17.20;99.90;;;;;;6678760;88;20253;-76
2021/08/24 07:33:46;;;;;;;3.55;2.00;;;17.60;99.90;;;;;;6690595;88;20239;-75
2021/08/24 07:43:48;;;;;;;5.03;2.30;;;18.00;99.90;;;;;;6662847;89;20208;-76
2021/08/24 07:53:49;;;;;;;4.55;1.98;;;18.80;99.90;;;;;;6662987;89;20196;-74
2021/08/24 08:03:50;;;;;;;8.63;2.50;;;19.10;99.90;;;;;;6662476;88;20203;-74
2021/08/24 08:13:50;;;;;;;3.30;2.08;;;20.00;99.90;;;;;;6662640;89;20702;-75
2021/08/24 08:23:51;;;;;;;4.83;1.93;;;20.50;99.90;;;;;;6667331;88;20240;-74
2021/08/24 08:33:52;;;;;;;4.15;2.42;;;20.60;99.90;;;;;;6680510;88;20194;-76
2021/08/24 08:43:59;;;;;;;5.28;2.00;;;21.10;99.90;;;;;;6672725;88;20200;-75
2021/08/24 08:54:16;;;;;;;3.95;1.70;;;21.90;99.90;;;;;;6666477;89;20663;-75
2021/08/24 09:04:25;;;;;;;2.75;1.30;;;22.80;99.90;;;;;;6672882;88;20191;-74
2021/08/24 09:14:44;;;;;;;3.70;1.60;;;22.80;99.90;;;;;;6678695;88;20290;-74
2021/08/24 09:24:47;;;;;;;2.75;1.55;;;23.00;95.00;;;;;;6668121;88;20340;-75
2021/08/24 09:34:50;;;;;;;5.60;1.80;;;23.40;93.40;;;;;;6670493;88;20642;-75
2021/08/24 09:44:51;;;;;;;5.15;1.77;;;24.10;92.70;;;;;;6670176;88;20195;-75
2021/08/24 09:54:57;;;;;;;3.75;2.05;;;24.90;92.60;;;;;;6672330;88;20615;-75
2021/08/24 10:04:58;;;;;;;5.68;2.20;;;25.30;92.10;;;;;;6672380;88;20183;-75
2021/08/24 10:15:29;;;;;;;3.75;1.90;;;25.40;91.90;;;;;;6671534;88;20760;-74
2021/08/24 10:25:42;;;;;;;5.65;2.17;;;26.60;90.30;;;;;;6677454;88;20272;-75
2021/08/24 10:35:42;;;;;;;6.12;2.03;;;25.90;91.10;;;;;;6681790;88;20700;-76
2021/08/24 10:46:04;;;;;;;3.65;1.87;;;26.60;89.50;;;;;;6683083;88;20168;-75
2021/08/24 10:56:14;;;;;;;3.83;2.00;;;27.80;88.90;;;;;;6677974;88;20326;-75
2021/08/24 11:06:47;;;;;;;4.53;1.70;;;28.20;85.30;;;;;;6673223;88;20517;-75
2021/08/24 11:17:24;;;;;;;6.32;2.25;;;28.40;84.70;;;;;;6672659;89;20180;-76
2021/08/24 11:27:52;;;;;;;4.35;1.80;;;28.30;84.70;;;;;;6670274;88;20185;-75
2021/08/24 11:37:57;;;;;;;4.20;2.10;;;27.70;86.30;;;;;;6670917;88;20365;-75
2021/08/24 11:48:04;;;;;;;3.60;2.05;;;28.20;84.50;;;;;;6670690;89;20212;-75
2021/08/24 11:58:22;;;;;;;3.70;1.95;;;28.10;84.10;;;;;;6683318;88;20290;-75
2021/08/24 12:08:26;;;;;;;4.05;1.80;;;29.00;79.60;;;;;;6671112;88;20195;-75
2021/08/24 12:18:27;;;;;;;3.33;1.92;;;28.60;80.70;;;;;;6672483;88;20262;-75
2021/08/24 12:28:33;;;;;;;3.97;2.00;;;27.50;83.20;;;;;;6667811;88;20708;-75
2021/08/24 12:38:49;;;;;;;4.28;1.90;;;27.60;84.30;;;;;;6683358;88;20199;-76
2021/08/24 12:49:15;;;;;;;6.15;2.00;;;26.00;85.10;;;;;;6684766;88;20180;-76
2021/08/24 12:59:37;;;;;;;4.70;2.00;;;27.90;83.00;;;;;;6682074;89;20236;-75
2021/08/24 13:09:41;;;;;;;5.22;2.03;;;28.60;82.10;;;;;;6684137;88;20278;-74
2021/08/24 13:19:47;;;;;;;3.62;2.20;;;28.20;83.60;;;;;;6690663;88;20213;-75
2021/08/24 13:29:49;;;;;;;3.65;1.90;;;29.30;80.60;;;;;;6684871;88;20556;-75
2021/08/24 13:39:52;;;;;;;4.28;2.10;;;30.20;79.10;;;;;;6676934;89;20207;-76
2021/08/24 13:49:56;;;;;;;3.78;2.20;;;30.50;76.10;;;;;;6668500;88;20242;-76
2021/08/24 14:00:01;;;;;;;3.70;2.20;;;29.40;77.40;;;;;;6669105;88;20655;-76
2021/08/24 14:10:21;;;;;;;5.45;2.03;;;30.20;75.80;;;;;;6667896;88;20206;-76
2021/08/24 14:20:33;;;;;;;4.35;2.40;;;29.60;75.40;;;;;;6671673;88;20689;-76
2021/08/24 14:30:35;;;;;;;3.77;2.13;;;28.40;78.80;;;;;;6665062;88;20191;-77
2021/08/24 14:40:36;;;;;;;3.33;2.00;;;28.00;78.20;;;;;;6671905;88;20684;-76
2021/08/24 14:50:41;;;;;;;4.62;2.20;;;27.60;79.50;;;;;;6673565;88;20248;-76
2021/08/24 15:01:04;;;;;;;4.62;1.90;;;27.20;80.30;;;;;;6678006;88;20627;-77
2021/08/24 15:11:12;;;;;;;5.43;2.87;;;27.10;81.30;;;;;;6675677;88;20667;-76
2021/08/24 15:21:24;;;;;;;3.55;2.20;;;27.30;79.50;;;;;;6673468;88;20191;-75
2021/08/24 15:31:25;;;;;;;4.65;2.37;;;26.70;81.30;;;;;;6669951;88;20207;-75
2021/08/24 15:41:33;;;;;;;5.55;2.30;;;26.00;83.60;;;;;;6670424;88;20195;-76
2021/08/24 15:51:34;;;;;;;5.28;2.42;;;25.60;83.90;;;;;;6671537;88;20343;-77
2021/08/24 16:01:36;;;;;;;4.57;2.30;;;25.20;84.30;;;;;;6674814;88;20348;-77
2021/08/24 16:11:51;;;;;;;4.65;2.40;;;25.40;84.10;;;;;;6677418;88;20226;-77
2021/08/24 16:21:51;;;;;;;5.07;2.55;;;25.30;84.00;;;;;;6671037;88;20286;-77
2021/08/24 16:31:52;;;;;;;6.60;2.60;;;25.20;85.60;;;;;;6671702;88;20191;-76
2021/08/24 16:41:52;;;;;;;8.68;2.60;;;24.20;84.30;;;;;;6670420;89;20317;-77
2021/08/24 16:51:53;;;;;;;6.57;2.65;;;22.90;88.20;;;;;;6668531;88;20656;-77
2021/08/24 17:01:53;;;;;;;6.62;2.67;;;22.70;90.50;;;;;;6669391;88;20191;-75
2021/08/24 17:11:54;;;;;;;4.72;2.30;;;22.60;91.20;;;;;;6669895;88;20334;-76
2021/08/24 17:21:54;;;;;;;4.53;2.30;;;22.50;91.80;;;;;;6664764;88;20614;-76
2021/08/24 17:31:55;;;;;;;4.97;2.55;;;22.20;92.60;;;;;;6672738;89;20212;-75
2021/08/24 17:41:57;;;;;;;6.20;2.47;;;22.20;92.80;;;;;;6667761;89;20236;-75
2021/08/24 17:51:58;;;;;;;6.75;2.40;;;22.10;93.80;;;;;;6666992;89;20693;-76
2021/08/24 18:01:59;;;;;;;5.18;2.22;;;21.70;94.50;;;;;;6667832;89;20299;-76
2021/08/24 18:12:01;;;;;;;4.43;2.40;;;21.30;94.90;;;;;;6672535;88;20402;-76
2021/08/24 18:22:03;;;;;;;5.80;2.10;;;20.90;96.00;;;;;;6669147;88;20184;-76
2021/08/24 18:32:04;;;;;;;5.78;2.20;;;20.60;97.40;;;;;;6667902;88;20235;-76
2021/08/24 18:42:05;;;;;;;4.53;1.85;;;20.20;98.30;;;;;;6670607;88;20221;-76
2021/08/24 18:52:05;;;;;;;3.55;2.10;;;19.80;99.60;;;;;;6671206;88;20222;-76
2021/08/24 19:02:06;;;;;;;4.90;2.07;;;19.70;99.90;;;;;;6663083;88;20322;-75
2021/08/24 19:12:07;;;;;;;5.35;1.98;;;19.40;99.90;;;;;;6663508;89;20334;-74
2021/08/24 19:22:07;;;;;;;5.25;2.50;;;19.10;99.90;;;;;;6663514;89;20220;-76
2021/08/24 19:32:08;;;;;;;7.50;2.70;;;18.70;99.90;;;;;;6662424;89;20261;-74
2021/08/24 19:42:10;;;;;;;8.98;2.70;;;18.60;99.90;;;;;;6663370;89;20275;-73
2021/08/24 19:52:13;;;;;;;4.47;2.22;;;18.40;99.90;;;;;;6663504;88;20218;-76
2021/08/24 20:02:14;;;;;;;5.72;2.65;;;18.00;99.90;;;;;;6664415;88;20199;-76
2021/08/24 20:12:25;;;;;;;5.25;2.70;;;17.60;99.90;;;;;;6663913;89;20203;-76
2021/08/24 20:22:28;;;;;;;6.10;3.30;;;17.40;99.90;;;;;;6666630;88;20213;-76
2021/08/24 20:32:29;;;;;;;5.40;2.85;;;17.50;99.90;;;;;;6671236;88;20222;-77
2021/08/24 20:42:30;;;;;;;7.07;3.28;;;17.00;99.90;;;;;;6672792;88;20229;-77
2021/08/24 20:52:30;;;;;;;7.50;3.20;;;16.70;99.90;;;;;;6661592;89;20211;-76
2021/08/24 21:02:31;;;;;;;5.97;3.20;;;16.50;99.90;;;;;;6667325;88;21939;-76
2021/08/24 21:12:32;;;;;;;6.97;3.50;;;16.40;99.90;;;;;;6668788;88;21129;-75
2021/08/24 21:22:32;;;;;;;6.78;2.90;;;16.40;99.90;;;;;;6668790;88;20337;-76
2021/08/24 21:32:33;;;;;;;6.10;2.90;;;16.50;99.90;;;;;;6665789;89;20301;-76
2021/08/24 21:42:33;;;;;;;5.90;3.00;;;16.30;99.90;;;;;;6666094;88;20198;-76
2021/08/24 21:52:36;;;;;;;4.97;2.75;;;16.40;99.90;;;;;;6672024;88;20238;-76
2021/08/24 22:02:37;;;;;;;6.95;2.90;;;16.20;99.90;;;;;;6672920;88;20227;-76
2021/08/24 22:12:37;;;;;;;5.93;2.83;;;15.80;99.90;;;;;;6674974;88;20216;-76
2021/08/24 22:22:39;;;;;;;6.15;3.05;;;15.60;99.90;;;;;;6675690;88;20396;-76
2021/08/24 22:32:59;;;;;;;6.22;3.10;;;15.30;99.90;;;;;;6668545;88;20659;-76
2021/08/24 22:42:59;;;;;;;4.93;2.87;;;15.20;99.90;;;;;;6676334;88;20187;-76
2021/08/24 22:53:00;;;;;;;6.03;3.15;;;15.10;99.90;;;;;;6675118;88;20210;-76
2021/08/24 23:03:01;;;;;;;6.78;3.12;;;15.20;99.90;;;;;;6669719;88;20210;-76
2021/08/24 23:13:01;;;;;;;6.10;2.60;;;14.90;99.90;;;;;;6672675;88;20674;-75
2021/08/24 23:23:02;;;;;;;5.97;2.53;;;14.90;99.90;;;;;;6669545;88;20271;-76
2021/08/24 23:33:02;;;;;;;5.22;2.80;;;14.90;99.90;;;;;;6669830;88;20696;-76
2021/08/24 23:43:03;;;;;;;5.90;1.97;;;15.00;99.90;;;;;;6674108;88;20250;-75
2021/08/24 23:53:04;;;;;;;4.95;2.37;;;15.00;99.90;;;;;;6668364;88;20509;-76
